sensor_id;sensor_type;location;lat;lon;timestamp;temperature;humidity
75190;HTU21D;69198;44.694;37.790;2024-01-25T00:00:37;5.62;72.95
75190;HTU21D;69198;44.694;37.790;2024-01-25T00:01:38;5.64;72.94
75190;HTU21D;69198;44.694;37.790;2024-01-25T00:02:39;5.65;72.92
75190;HTU21D;69198;44.694;37.790;2024-01-25T00:03:40;5.66;72.90
75190;HTU21D;69198;44.694;37.790;2024-01-25T00:04:41;5.67;72.87
75190;HTU21D;69198;44.694;37.790;2024-01-25T00:05:43;5.69;72.87
75190;HTU21D;69198;44.694;37.790;2024-01-25T00:06:44;5.70;72.86
75190;HTU21D;69198;44.694;37.790;2024-01-25T00:07:48;5.71;72.82
75190;HTU21D;69198;44.694;37.790;2024-01-25T00:08:49;5.71;72.83
75190;HTU21D;69198;44.694;37.790;2024-01-25T00:09:50;5.75;72.80
75190;HTU21D;69198;44.694;37.790;2024-01-25T00:10:51;5.77;72.77
75190;HTU21D;69198;44.694;37.790;2024-01-25T00:11:52;5.80;72.75
75190;HTU21D;69198;44.694;37.790;2024-01-25T00:12:53;5.81;72.72
75190;HTU21D;69198;44.694;37.790;2024-01-25T00:13:54;5.83;72.72
75190;HTU21D;69198;44.694;37.790;2024-01-25T00:14:55;5.85;72.70
75190;HTU21D;69198;44.694;37.790;2024-01-25T00:15:56;5.87;72.70
75190;HTU21D;69198;44.694;37.790;2024-01-25T00:16:57;5.90;72.64
75190;HTU21D;69198;44.694;37.790;2024-01-25T00:17:58;5.89;72.64
75190;HTU21D;69198;44.694;37.790;2024-01-25T00:18:59;5.92;72.60
75190;HTU21D;69198;44.694;37.790;2024-01-25T00:20:00;5.93;72.58
75190;HTU21D;69198;44.694;37.790;2024-01-25T00:21:01;5.93;72.59
75190;HTU21D;69198;44.694;37.790;2024-01-25T00:22:02;5.95;72.60
75190;HTU21D;69198;44.694;37.790;2024-01-25T00:23:03;5.96;72.56
75190;HTU21D;69198;44.694;37.790;2024-01-25T00:24:04;5.97;72.54
75190;HTU21D;69198;44.694;37.790;2024-01-25T00:25:06;5.97;72.55
75190;HTU21D;69198;44.694;37.790;2024-01-25T00:26:07;5.98;72.51
75190;HTU21D;69198;44.694;37.790;2024-01-25T00:27:09;5.99;72.50
75190;HTU21D;69198;44.694;37.790;2024-01-25T00:28:10;6.01;72.48
75190;HTU21D;69198;44.694;37.790;2024-01-25T00:29:11;6.02;72.51
75190;HTU21D;69198;44.694;37.790;2024-01-25T00:30:12;6.05;72.50
75190;HTU21D;69198;44.694;37.790;2024-01-25T00:31:13;6.05;72.50
75190;HTU21D;69198;44.694;37.790;2024-01-25T00:32:14;6.06;72.49
75190;HTU21D;69198;44.694;37.790;2024-01-25T00:33:14;6.06;72.49
75190;HTU21D;69198;44.694;37.790;2024-01-25T00:34:16;6.07;72.51
75190;HTU21D;69198;44.694;37.790;2024-01-25T00:35:17;6.10;72.48
75190;HTU21D;69198;44.694;37.790;2024-01-25T00:36:18;6.13;72.45
75190;HTU21D;69198;44.694;37.790;2024-01-25T00:37:19;6.14;72.40
75190;HTU21D;69198;44.694;37.790;2024-01-25T00:38:21;6.17;72.38
75190;HTU21D;69198;44.694;37.790;2024-01-25T00:39:22;6.20;72.33
75190;HTU21D;69198;44.694;37.790;2024-01-25T00:40:23;6.23;72.31
75190;HTU21D;69198;44.694;37.790;2024-01-25T00:41:24;6.24;72.28
75190;HTU21D;69198;44.694;37.790;2024-01-25T00:42:26;6.25;72.24
75190;HTU21D;69198;44.694;37.790;2024-01-25T00:43:28;6.26;72.24
75190;HTU21D;69198;44.694;37.790;2024-01-25T00:44:29;6.27;72.26
75190;HTU21D;69198;44.694;37.790;2024-01-25T00:45:30;6.28;72.25
75190;HTU21D;69198;44.694;37.790;2024-01-25T00:46:31;6.28;72.25
75190;HTU21D;69198;44.694;37.790;2024-01-25T00:47:32;6.27;72.25
75190;HTU21D;69198;44.694;37.790;2024-01-25T00:48:34;6.29;72.29
75190;HTU21D;69198;44.694;37.790;2024-01-25T00:49:35;6.30;72.31
75190;HTU21D;69198;44.694;37.790;2024-01-25T00:50:37;6.27;72.35
75190;HTU21D;69198;44.694;37.790;2024-01-25T00:51:42;6.27;72.42
75190;HTU21D;69198;44.694;37.790;2024-01-25T00:52:45;6.25;72.54
75190;HTU21D;69198;44.694;37.790;2024-01-25T00:53:46;6.28;72.61
75190;HTU21D;69198;44.694;37.790;2024-01-25T00:54:47;6.31;72.64
75190;HTU21D;69198;44.694;37.790;2024-01-25T00:55:48;6.34;72.63
75190;HTU21D;69198;44.694;37.790;2024-01-25T00:56:49;6.36;72.62
75190;HTU21D;69198;44.694;37.790;2024-01-25T00:57:53;6.37;72.61
75190;HTU21D;69198;44.694;37.790;2024-01-25T00:58:55;6.38;72.61
75190;HTU21D;69198;44.694;37.790;2024-01-25T00:59:56;6.38;72.61
75190;HTU21D;69198;44.694;37.790;2024-01-25T01:00:57;6.39;72.64
75190;HTU21D;69198;44.694;37.790;2024-01-25T01:01:59;6.38;72.63
75190;HTU21D;69198;44.694;37.790;2024-01-25T01:03:03;6.39;72.62
75190;HTU21D;69198;44.694;37.790;2024-01-25T01:04:05;6.39;72.62
75190;HTU21D;69198;44.694;37.790;2024-01-25T01:05:07;6.38;72.64
75190;HTU21D;69198;44.694;37.790;2024-01-25T01:06:08;6.37;72.61
75190;HTU21D;69198;44.694;37.790;2024-01-25T01:07:10;6.35;72.64
75190;HTU21D;69198;44.694;37.790;2024-01-25T01:08:12;6.31;72.67
75190;HTU21D;69198;44.694;37.790;2024-01-25T01:09:13;6.30;72.73
75190;HTU21D;69198;44.694;37.790;2024-01-25T01:10:14;6.28;72.77
75190;HTU21D;69198;44.694;37.790;2024-01-25T01:11:15;6.26;72.83
75190;HTU21D;69198;44.694;37.790;2024-01-25T01:12:16;6.25;72.86
75190;HTU21D;69198;44.694;37.790;2024-01-25T01:13:17;6.26;72.90
75190;HTU21D;69198;44.694;37.790;2024-01-25T01:14:18;6.25;72.91
75190;HTU21D;69198;44.694;37.790;2024-01-25T01:15:19;6.25;72.90
75190;HTU21D;69198;44.694;37.790;2024-01-25T01:16:20;6.25;72.89
75190;HTU21D;69198;44.694;37.790;2024-01-25T01:17:21;6.24;72.90
75190;HTU21D;69198;44.694;37.790;2024-01-25T01:18:22;6.23;72.93
75190;HTU21D;69198;44.694;37.790;2024-01-25T01:19:23;6.22;72.93
75190;HTU21D;69198;44.694;37.790;2024-01-25T01:20:24;6.22;72.95
75190;HTU21D;69198;44.694;37.790;2024-01-25T01:21:25;6.21;72.95
75190;HTU21D;69198;44.694;37.790;2024-01-25T01:22:26;6.21;72.98
75190;HTU21D;69198;44.694;37.790;2024-01-25T01:23:27;6.22;72.96
75190;HTU21D;69198;44.694;37.790;2024-01-25T01:24:28;6.22;72.97
75190;HTU21D;69198;44.694;37.790;2024-01-25T01:25:29;6.21;72.98
75190;HTU21D;69198;44.694;37.790;2024-01-25T01:26:30;6.22;72.98
75190;HTU21D;69198;44.694;37.790;2024-01-25T01:27:31;6.20;72.98
75190;HTU21D;69198;44.694;37.790;2024-01-25T01:28:32;6.19;72.98
75190;HTU21D;69198;44.694;37.790;2024-01-25T01:29:33;6.17;72.93
75190;HTU21D;69198;44.694;37.790;2024-01-25T01:30:34;6.16;72.93
75190;HTU21D;69198;44.694;37.790;2024-01-25T01:31:35;6.14;72.93
75190;HTU21D;69198;44.694;37.790;2024-01-25T01:32:36;6.14;72.94
75190;HTU21D;69198;44.694;37.790;2024-01-25T01:33:37;6.13;72.96
75190;HTU21D;69198;44.694;37.790;2024-01-25T01:34:38;6.14;72.95
75190;HTU21D;69198;44.694;37.790;2024-01-25T01:35:39;6.15;72.91
75190;HTU21D;69198;44.694;37.790;2024-01-25T01:36:40;6.16;72.85
75190;HTU21D;69198;44.694;37.790;2024-01-25T01:37:41;6.14;72.82
75190;HTU21D;69198;44.694;37.790;2024-01-25T01:38:42;6.19;72.77
75190;HTU21D;69198;44.694;37.790;2024-01-25T01:39:43;6.21;72.67
75190;HTU21D;69198;44.694;37.790;2024-01-25T01:40:44;6.21;72.63
75190;HTU21D;69198;44.694;37.790;2024-01-25T01:41:49;6.20;72.58
75190;HTU21D;69198;44.694;37.790;2024-01-25T01:42:50;6.17;72.54
75190;HTU21D;69198;44.694;37.790;2024-01-25T01:43:54;6.19;72.51
75190;HTU21D;69198;44.694;37.790;2024-01-25T01:44:55;6.17;72.49
75190;HTU21D;69198;44.694;37.790;2024-01-25T01:46:04;6.16;72.50
75190;HTU21D;69198;44.694;37.790;2024-01-25T01:47:05;6.13;72.51
75190;HTU21D;69198;44.694;37.790;2024-01-25T01:48:07;6.13;72.49
75190;HTU21D;69198;44.694;37.790;2024-01-25T01:49:11;6.10;72.49
75190;HTU21D;69198;44.694;37.790;2024-01-25T01:50:12;6.09;72.52
75190;HTU21D;69198;44.694;37.790;2024-01-25T01:51:13;6.10;72.53
75190;HTU21D;69198;44.694;37.790;2024-01-25T01:52:14;6.12;72.50
75190;HTU21D;69198;44.694;37.790;2024-01-25T01:53:17;6.16;72.50
75190;HTU21D;69198;44.694;37.790;2024-01-25T01:54:18;6.17;72.44
75190;HTU21D;69198;44.694;37.790;2024-01-25T01:55:20;6.21;72.41
75190;HTU21D;69198;44.694;37.790;2024-01-25T01:56:23;6.23;72.37
75190;HTU21D;69198;44.694;37.790;2024-01-25T01:57:25;6.25;72.32
75190;HTU21D;69198;44.694;37.790;2024-01-25T01:58:28;6.24;72.29
75190;HTU21D;69198;44.694;37.790;2024-01-25T01:59:31;6.24;72.27
75190;HTU21D;69198;44.694;37.790;2024-01-25T02:00:33;6.24;72.31
75190;HTU21D;69198;44.694;37.790;2024-01-25T02:01:34;6.24;72.35
75190;HTU21D;69198;44.694;37.790;2024-01-25T02:02:35;6.26;72.33
75190;HTU21D;69198;44.694;37.790;2024-01-25T02:03:36;6.30;72.27
75190;HTU21D;69198;44.694;37.790;2024-01-25T02:04:38;6.30;72.19
75190;HTU21D;69198;44.694;37.790;2024-01-25T02:05:38;6.30;72.16
75190;HTU21D;69198;44.694;37.790;2024-01-25T02:06:40;6.31;72.16
75190;HTU21D;69198;44.694;37.790;2024-01-25T02:07:43;6.31;72.22
75190;HTU21D;69198;44.694;37.790;2024-01-25T02:08:44;6.36;72.15
75190;HTU21D;69198;44.694;37.790;2024-01-25T02:09:45;6.40;72.06
75190;HTU21D;69198;44.694;37.790;2024-01-25T02:10:46;6.40;72.00
75190;HTU21D;69198;44.694;37.790;2024-01-25T02:11:47;6.42;71.96
75190;HTU21D;69198;44.694;37.790;2024-01-25T02:12:48;6.41;72.00
75190;HTU21D;69198;44.694;37.790;2024-01-25T02:13:49;6.42;72.03
75190;HTU21D;69198;44.694;37.790;2024-01-25T02:14:50;6.44;71.96
75190;HTU21D;69198;44.694;37.790;2024-01-25T02:15:50;6.45;71.90
75190;HTU21D;69198;44.694;37.790;2024-01-25T02:16:51;6.46;71.86
75190;HTU21D;69198;44.694;37.790;2024-01-25T02:17:52;6.44;71.88
75190;HTU21D;69198;44.694;37.790;2024-01-25T02:18:53;6.45;71.82
75190;HTU21D;69198;44.694;37.790;2024-01-25T02:19:57;6.43;71.84
75190;HTU21D;69198;44.694;37.790;2024-01-25T02:20:58;6.43;71.87
75190;HTU21D;69198;44.694;37.790;2024-01-25T02:22:01;6.44;71.85
75190;HTU21D;69198;44.694;37.790;2024-01-25T02:23:02;6.46;71.83
75190;HTU21D;69198;44.694;37.790;2024-01-25T02:24:04;6.49;71.82
75190;HTU21D;69198;44.694;37.790;2024-01-25T02:25:05;6.48;71.80
75190;HTU21D;69198;44.694;37.790;2024-01-25T02:26:06;6.51;71.80
75190;HTU21D;69198;44.694;37.790;2024-01-25T02:27:07;6.50;71.76
75190;HTU21D;69198;44.694;37.790;2024-01-25T02:28:08;6.50;71.77
75190;HTU21D;69198;44.694;37.790;2024-01-25T02:29:09;6.49;71.79
75190;HTU21D;69198;44.694;37.790;2024-01-25T02:30:10;6.51;71.82
75190;HTU21D;69198;44.694;37.790;2024-01-25T02:31:11;6.53;71.80
75190;HTU21D;69198;44.694;37.790;2024-01-25T02:32:12;6.53;71.78
75190;HTU21D;69198;44.694;37.790;2024-01-25T02:33:13;6.54;71.77
75190;HTU21D;69198;44.694;37.790;2024-01-25T02:34:15;6.54;71.75
75190;HTU21D;69198;44.694;37.790;2024-01-25T02:35:15;6.53;71.75
75190;HTU21D;69198;44.694;37.790;2024-01-25T02:36:16;6.52;71.80
75190;HTU21D;69198;44.694;37.790;2024-01-25T02:37:17;6.54;71.79
75190;HTU21D;69198;44.694;37.790;2024-01-25T02:38:18;6.53;71.74
75190;HTU21D;69198;44.694;37.790;2024-01-25T02:39:19;6.50;71.74
75190;HTU21D;69198;44.694;37.790;2024-01-25T02:40:20;6.51;71.76
75190;HTU21D;69198;44.694;37.790;2024-01-25T02:41:21;6.49;71.76
75190;HTU21D;69198;44.694;37.790;2024-01-25T02:42:22;6.48;71.78
75190;HTU21D;69198;44.694;37.790;2024-01-25T02:43:23;6.46;71.79
75190;HTU21D;69198;44.694;37.790;2024-01-25T02:44:24;6.44;71.83
75190;HTU21D;69198;44.694;37.790;2024-01-25T02:45:25;6.44;71.77
75190;HTU21D;69198;44.694;37.790;2024-01-25T02:46:26;6.44;71.78
75190;HTU21D;69198;44.694;37.790;2024-01-25T02:47:27;6.43;71.76
75190;HTU21D;69198;44.694;37.790;2024-01-25T02:48:28;6.43;71.80
75190;HTU21D;69198;44.694;37.790;2024-01-25T02:49:29;6.43;71.78
75190;HTU21D;69198;44.694;37.790;2024-01-25T02:50:30;6.43;71.74
75190;HTU21D;69198;44.694;37.790;2024-01-25T02:51:31;6.43;71.80
75190;HTU21D;69198;44.694;37.790;2024-01-25T02:52:32;6.44;71.72
75190;HTU21D;69198;44.694;37.790;2024-01-25T02:53:32;6.46;71.65
75190;HTU21D;69198;44.694;37.790;2024-01-25T02:54:36;6.44;71.62
75190;HTU21D;69198;44.694;37.790;2024-01-25T02:55:37;6.42;71.64
75190;HTU21D;69198;44.694;37.790;2024-01-25T02:56:38;6.42;71.64
75190;HTU21D;69198;44.694;37.790;2024-01-25T02:57:39;6.42;71.58
75190;HTU21D;69198;44.694;37.790;2024-01-25T02:58:40;6.39;71.51
75190;HTU21D;69198;44.694;37.790;2024-01-25T02:59:41;6.37;71.51
75190;HTU21D;69198;44.694;37.790;2024-01-25T03:00:42;6.35;71.55
75190;HTU21D;69198;44.694;37.790;2024-01-25T03:01:43;6.34;71.56
75190;HTU21D;69198;44.694;37.790;2024-01-25T03:02:45;6.34;71.55
75190;HTU21D;69198;44.694;37.790;2024-01-25T03:03:46;6.34;71.56
75190;HTU21D;69198;44.694;37.790;2024-01-25T03:04:48;6.36;71.48
75190;HTU21D;69198;44.694;37.790;2024-01-25T03:05:51;6.36;71.40
75190;HTU21D;69198;44.694;37.790;2024-01-25T03:06:52;6.34;71.34
75190;HTU21D;69198;44.694;37.790;2024-01-25T03:07:53;6.31;71.35
75190;HTU21D;69198;44.694;37.790;2024-01-25T03:08:54;6.30;71.33
75190;HTU21D;69198;44.694;37.790;2024-01-25T03:09:55;6.30;71.34
75190;HTU21D;69198;44.694;37.790;2024-01-25T03:10:56;6.31;71.33
75190;HTU21D;69198;44.694;37.790;2024-01-25T03:11:57;6.34;71.33
75190;HTU21D;69198;44.694;37.790;2024-01-25T03:12:58;6.37;71.24
75190;HTU21D;69198;44.694;37.790;2024-01-25T03:13:59;6.39;71.22
75190;HTU21D;69198;44.694;37.790;2024-01-25T03:15:00;6.42;71.16
75190;HTU21D;69198;44.694;37.790;2024-01-25T03:16:01;6.43;71.11
75190;HTU21D;69198;44.694;37.790;2024-01-25T03:17:03;6.43;71.08
75190;HTU21D;69198;44.694;37.790;2024-01-25T03:18:04;6.41;71.10
75190;HTU21D;69198;44.694;37.790;2024-01-25T03:19:05;6.39;71.13
75190;HTU21D;69198;44.694;37.790;2024-01-25T03:20:06;6.40;71.16
75190;HTU21D;69198;44.694;37.790;2024-01-25T03:21:07;6.40;71.13
75190;HTU21D;69198;44.694;37.790;2024-01-25T03:22:08;6.39;71.06
75190;HTU21D;69198;44.694;37.790;2024-01-25T03:23:09;6.37;71.04
75190;HTU21D;69198;44.694;37.790;2024-01-25T03:24:10;6.35;71.03
75190;HTU21D;69198;44.694;37.790;2024-01-25T03:25:11;6.34;71.08
75190;HTU21D;69198;44.694;37.790;2024-01-25T03:26:12;6.34;71.13
75190;HTU21D;69198;44.694;37.790;2024-01-25T03:27:13;6.33;71.19
75190;HTU21D;69198;44.694;37.790;2024-01-25T03:28:15;6.35;71.21
75190;HTU21D;69198;44.694;37.790;2024-01-25T03:29:17;6.37;71.17
75190;HTU21D;69198;44.694;37.790;2024-01-25T03:30:18;6.39;71.09
75190;HTU21D;69198;44.694;37.790;2024-01-25T03:31:19;6.40;71.06
75190;HTU21D;69198;44.694;37.790;2024-01-25T03:32:20;6.40;71.06
75190;HTU21D;69198;44.694;37.790;2024-01-25T03:33:21;6.40;71.10
75190;HTU21D;69198;44.694;37.790;2024-01-25T03:34:22;6.41;71.15
75190;HTU21D;69198;44.694;37.790;2024-01-25T03:35:24;6.43;71.13
75190;HTU21D;69198;44.694;37.790;2024-01-25T03:36:24;6.45;71.13
75190;HTU21D;69198;44.694;37.790;2024-01-25T03:37:25;6.46;71.10
75190;HTU21D;69198;44.694;37.790;2024-01-25T03:38:26;6.49;71.08
75190;HTU21D;69198;44.694;37.790;2024-01-25T03:39:27;6.50;71.05
75190;HTU21D;69198;44.694;37.790;2024-01-25T03:40:28;6.50;71.07
75190;HTU21D;69198;44.694;37.790;2024-01-25T03:41:29;6.50;71.10
75190;HTU21D;69198;44.694;37.790;2024-01-25T03:42:30;6.52;71.08
75190;HTU21D;69198;44.694;37.790;2024-01-25T03:43:31;6.54;71.09
75190;HTU21D;69198;44.694;37.790;2024-01-25T03:44:32;6.52;71.11
75190;HTU21D;69198;44.694;37.790;2024-01-25T03:45:33;6.53;71.16
75190;HTU21D;69198;44.694;37.790;2024-01-25T03:46:34;6.51;71.16
75190;HTU21D;69198;44.694;37.790;2024-01-25T03:47:35;6.49;71.19
75190;HTU21D;69198;44.694;37.790;2024-01-25T03:48:36;6.48;71.25
75190;HTU21D;69198;44.694;37.790;2024-01-25T03:49:37;6.46;71.32
75190;HTU21D;69198;44.694;37.790;2024-01-25T03:50:38;6.46;71.33
75190;HTU21D;69198;44.694;37.790;2024-01-25T03:51:39;6.43;71.41
75190;HTU21D;69198;44.694;37.790;2024-01-25T03:52:40;6.42;71.43
75190;HTU21D;69198;44.694;37.790;2024-01-25T03:53:41;6.43;71.43
75190;HTU21D;69198;44.694;37.790;2024-01-25T03:54:43;6.41;71.48
75190;HTU21D;69198;44.694;37.790;2024-01-25T03:55:44;6.42;71.49
75190;HTU21D;69198;44.694;37.790;2024-01-25T03:56:45;6.42;71.44
75190;HTU21D;69198;44.694;37.790;2024-01-25T03:57:46;6.41;71.44
75190;HTU21D;69198;44.694;37.790;2024-01-25T03:58:47;6.39;71.45
75190;HTU21D;69198;44.694;37.790;2024-01-25T03:59:48;6.38;71.48
75190;HTU21D;69198;44.694;37.790;2024-01-25T04:00:49;6.37;71.45
75190;HTU21D;69198;44.694;37.790;2024-01-25T04:01:50;6.35;71.48
75190;HTU21D;69198;44.694;37.790;2024-01-25T04:02:51;6.34;71.50
75190;HTU21D;69198;44.694;37.790;2024-01-25T04:03:52;6.34;71.50
75190;HTU21D;69198;44.694;37.790;2024-01-25T04:04:53;6.33;71.48
75190;HTU21D;69198;44.694;37.790;2024-01-25T04:05:54;6.33;71.49
75190;HTU21D;69198;44.694;37.790;2024-01-25T04:06:55;6.30;71.47
75190;HTU21D;69198;44.694;37.790;2024-01-25T04:07:56;6.27;71.48
75190;HTU21D;69198;44.694;37.790;2024-01-25T04:08:57;6.24;71.51
75190;HTU21D;69198;44.694;37.790;2024-01-25T04:09:58;6.20;71.58
75190;HTU21D;69198;44.694;37.790;2024-01-25T04:10:59;6.14;71.63
75190;HTU21D;69198;44.694;37.790;2024-01-25T04:12:00;6.11;71.69
75190;HTU21D;69198;44.694;37.790;2024-01-25T04:13:00;6.06;71.74
75190;HTU21D;69198;44.694;37.790;2024-01-25T04:14:02;6.00;71.80
75190;HTU21D;69198;44.694;37.790;2024-01-25T04:15:03;5.95;71.87
75190;HTU21D;69198;44.694;37.790;2024-01-25T04:16:05;5.90;72.01
75190;HTU21D;69198;44.694;37.790;2024-01-25T04:17:06;5.86;72.14
75190;HTU21D;69198;44.694;37.790;2024-01-25T04:18:07;5.86;72.22
75190;HTU21D;69198;44.694;37.790;2024-01-25T04:19:08;5.89;72.23
75190;HTU21D;69198;44.694;37.790;2024-01-25T04:20:12;5.86;72.22
75190;HTU21D;69198;44.694;37.790;2024-01-25T04:21:13;5.85;72.24
75190;HTU21D;69198;44.694;37.790;2024-01-25T04:22:14;5.86;72.27
75190;HTU21D;69198;44.694;37.790;2024-01-25T04:23:15;5.85;72.35
75190;HTU21D;69198;44.694;37.790;2024-01-25T04:24:16;5.85;72.40
75190;HTU21D;69198;44.694;37.790;2024-01-25T04:25:17;5.89;72.52
75190;HTU21D;69198;44.694;37.790;2024-01-25T04:26:21;5.95;72.70
75190;HTU21D;69198;44.694;37.790;2024-01-25T04:27:22;5.99;72.61
75190;HTU21D;69198;44.694;37.790;2024-01-25T04:28:23;6.05;72.54
75190;HTU21D;69198;44.694;37.790;2024-01-25T04:29:24;6.06;72.51
75190;HTU21D;69198;44.694;37.790;2024-01-25T04:30:25;6.10;72.48
75190;HTU21D;69198;44.694;37.790;2024-01-25T04:31:26;6.12;72.41
75190;HTU21D;69198;44.694;37.790;2024-01-25T04:32:27;6.12;72.41
75190;HTU21D;69198;44.694;37.790;2024-01-25T04:33:29;6.15;72.43
75190;HTU21D;69198;44.694;37.790;2024-01-25T04:34:30;6.21;72.38
75190;HTU21D;69198;44.694;37.790;2024-01-25T04:35:31;6.25;72.32
75190;HTU21D;69198;44.694;37.790;2024-01-25T04:36:32;6.26;72.23
75190;HTU21D;69198;44.694;37.790;2024-01-25T04:37:33;6.27;72.15
75190;HTU21D;69198;44.694;37.790;2024-01-25T04:38:34;6.25;72.16
75190;HTU21D;69198;44.694;37.790;2024-01-25T04:39:35;6.24;72.22
75190;HTU21D;69198;44.694;37.790;2024-01-25T04:40:36;6.26;72.19
75190;HTU21D;69198;44.694;37.790;2024-01-25T04:41:37;6.28;72.11
75190;HTU21D;69198;44.694;37.790;2024-01-25T04:42:38;6.28;72.06
75190;HTU21D;69198;44.694;37.790;2024-01-25T04:43:39;6.31;71.97
75190;HTU21D;69198;44.694;37.790;2024-01-25T04:44:40;6.31;71.90
75190;HTU21D;69198;44.694;37.790;2024-01-25T04:45:41;6.30;71.83
75190;HTU21D;69198;44.694;37.790;2024-01-25T04:46:42;6.34;71.76
75190;HTU21D;69198;44.694;37.790;2024-01-25T04:47:43;6.34;71.67
75190;HTU21D;69198;44.694;37.790;2024-01-25T04:48:44;6.33;71.61
75190;HTU21D;69198;44.694;37.790;2024-01-25T04:49:46;6.30;71.64
75190;HTU21D;69198;44.694;37.790;2024-01-25T04:50:47;6.34;71.60
75190;HTU21D;69198;44.694;37.790;2024-01-25T04:51:48;6.36;71.50
75190;HTU21D;69198;44.694;37.790;2024-01-25T04:52:49;6.39;71.39
75190;HTU21D;69198;44.694;37.790;2024-01-25T04:53:49;6.39;71.32
75190;HTU21D;69198;44.694;37.790;2024-01-25T04:54:50;6.40;71.29
75190;HTU21D;69198;44.694;37.790;2024-01-25T04:55:54;6.39;71.23
75190;HTU21D;69198;44.694;37.790;2024-01-25T04:56:55;6.36;71.29
75190;HTU21D;69198;44.694;37.790;2024-01-25T04:57:56;6.34;71.29
75190;HTU21D;69198;44.694;37.790;2024-01-25T04:58:57;6.31;71.35
75190;HTU21D;69198;44.694;37.790;2024-01-25T04:59:58;6.30;71.42
75190;HTU21D;69198;44.694;37.790;2024-01-25T05:00:59;6.29;71.43
75190;HTU21D;69198;44.694;37.790;2024-01-25T05:02:00;6.29;71.53
75190;HTU21D;69198;44.694;37.790;2024-01-25T05:03:01;6.31;71.53
75190;HTU21D;69198;44.694;37.790;2024-01-25T05:04:02;6.34;71.48
75190;HTU21D;69198;44.694;37.790;2024-01-25T05:05:04;6.33;71.55
75190;HTU21D;69198;44.694;37.790;2024-01-25T05:06:05;6.33;71.52
75190;HTU21D;69198;44.694;37.790;2024-01-25T05:07:06;6.35;71.53
75190;HTU21D;69198;44.694;37.790;2024-01-25T05:08:07;6.35;71.52
75190;HTU21D;69198;44.694;37.790;2024-01-25T05:09:08;6.36;71.51
75190;HTU21D;69198;44.694;37.790;2024-01-25T05:10:09;6.37;71.48
75190;HTU21D;69198;44.694;37.790;2024-01-25T05:11:10;6.37;71.46
75190;HTU21D;69198;44.694;37.790;2024-01-25T05:12:12;6.39;71.44
75190;HTU21D;69198;44.694;37.790;2024-01-25T05:13:13;6.40;71.42
75190;HTU21D;69198;44.694;37.790;2024-01-25T05:14:14;6.40;71.42
75190;HTU21D;69198;44.694;37.790;2024-01-25T05:15:15;6.43;71.40
75190;HTU21D;69198;44.694;37.790;2024-01-25T05:16:17;6.49;71.35
75190;HTU21D;69198;44.694;37.790;2024-01-25T05:17:18;6.53;71.26
75190;HTU21D;69198;44.694;37.790;2024-01-25T05:18:19;6.56;71.16
75190;HTU21D;69198;44.694;37.790;2024-01-25T05:19:20;6.58;71.09
75190;HTU21D;69198;44.694;37.790;2024-01-25T05:20:21;6.59;71.02
75190;HTU21D;69198;44.694;37.790;2024-01-25T05:21:22;6.58;71.03
75190;HTU21D;69198;44.694;37.790;2024-01-25T05:22:23;6.58;71.06
75190;HTU21D;69198;44.694;37.790;2024-01-25T05:23:24;6.60;71.09
75190;HTU21D;69198;44.694;37.790;2024-01-25T05:24:25;6.61;71.06
75190;HTU21D;69198;44.694;37.790;2024-01-25T05:25:26;6.64;70.99
75190;HTU21D;69198;44.694;37.790;2024-01-25T05:26:28;6.65;71.00
75190;HTU21D;69198;44.694;37.790;2024-01-25T05:27:29;6.68;70.93
75190;HTU21D;69198;44.694;37.790;2024-01-25T05:28:30;6.70;70.88
75190;HTU21D;69198;44.694;37.790;2024-01-25T05:29:31;6.74;70.81
75190;HTU21D;69198;44.694;37.790;2024-01-25T05:30:32;6.75;70.81
75190;HTU21D;69198;44.694;37.790;2024-01-25T05:31:33;6.78;70.76
75190;HTU21D;69198;44.694;37.790;2024-01-25T05:32:34;6.81;70.74
75190;HTU21D;69198;44.694;37.790;2024-01-25T05:33:35;6.82;70.73
75190;HTU21D;69198;44.694;37.790;2024-01-25T05:34:36;6.84;70.74
75190;HTU21D;69198;44.694;37.790;2024-01-25T05:35:36;6.85;70.69
75190;HTU21D;69198;44.694;37.790;2024-01-25T05:36:37;6.88;70.63
75190;HTU21D;69198;44.694;37.790;2024-01-25T05:37:38;6.90;70.61
75190;HTU21D;69198;44.694;37.790;2024-01-25T05:38:39;6.91;70.61
75190;HTU21D;69198;44.694;37.790;2024-01-25T05:39:40;6.95;70.56
75190;HTU21D;69198;44.694;37.790;2024-01-25T05:40:41;6.97;70.32
75190;HTU21D;69198;44.694;37.790;2024-01-25T05:41:42;7.01;70.22
75190;HTU21D;69198;44.694;37.790;2024-01-25T05:42:45;7.02;70.13
75190;HTU21D;69198;44.694;37.790;2024-01-25T05:43:46;7.04;70.07
75190;HTU21D;69198;44.694;37.790;2024-01-25T05:44:47;7.04;70.00
75190;HTU21D;69198;44.694;37.790;2024-01-25T05:45:48;7.07;69.93
75190;HTU21D;69198;44.694;37.790;2024-01-25T05:46:51;7.09;69.87
75190;HTU21D;69198;44.694;37.790;2024-01-25T05:47:52;7.13;69.82
75190;HTU21D;69198;44.694;37.790;2024-01-25T05:48:53;7.13;69.71
75190;HTU21D;69198;44.694;37.790;2024-01-25T05:49:54;7.15;69.71
75190;HTU21D;69198;44.694;37.790;2024-01-25T05:50:55;7.15;69.63
75190;HTU21D;69198;44.694;37.790;2024-01-25T05:51:56;7.16;69.63
75190;HTU21D;69198;44.694;37.790;2024-01-25T05:52:57;7.13;69.61
75190;HTU21D;69198;44.694;37.790;2024-01-25T05:53:58;7.14;69.61
75190;HTU21D;69198;44.694;37.790;2024-01-25T05:54:59;7.16;69.60
75190;HTU21D;69198;44.694;37.790;2024-01-25T05:56:00;7.19;69.58
75190;HTU21D;69198;44.694;37.790;2024-01-25T05:57:01;7.20;69.58
75190;HTU21D;69198;44.694;37.790;2024-01-25T05:58:02;7.25;69.52
75190;HTU21D;69198;44.694;37.790;2024-01-25T05:59:03;7.29;69.46
75190;HTU21D;69198;44.694;37.790;2024-01-25T06:00:04;7.32;69.44
75190;HTU21D;69198;44.694;37.790;2024-01-25T06:01:08;7.39;69.39
75190;HTU21D;69198;44.694;37.790;2024-01-25T06:02:10;7.46;69.36
75190;HTU21D;69198;44.694;37.790;2024-01-25T06:03:14;7.53;69.26
75190;HTU21D;69198;44.694;37.790;2024-01-25T06:04:15;7.56;69.13
75190;HTU21D;69198;44.694;37.790;2024-01-25T06:05:16;7.60;68.98
75190;HTU21D;69198;44.694;37.790;2024-01-25T06:06:17;7.64;68.87
75190;HTU21D;69198;44.694;37.790;2024-01-25T06:07:18;7.64;68.87
75190;HTU21D;69198;44.694;37.790;2024-01-25T06:08:19;7.68;68.84
75190;HTU21D;69198;44.694;37.790;2024-01-25T06:09:20;7.70;68.86
75190;HTU21D;69198;44.694;37.790;2024-01-25T06:10:21;7.73;68.80
75190;HTU21D;69198;44.694;37.790;2024-01-25T06:11:22;7.76;68.78
75190;HTU21D;69198;44.694;37.790;2024-01-25T06:12:23;7.83;68.75
75190;HTU21D;69198;44.694;37.790;2024-01-25T06:13:24;7.87;68.67
75190;HTU21D;69198;44.694;37.790;2024-01-25T06:14:25;7.90;68.58
75190;HTU21D;69198;44.694;37.790;2024-01-25T06:15:26;7.92;68.45
75190;HTU21D;69198;44.694;37.790;2024-01-25T06:16:27;7.94;68.30
75190;HTU21D;69198;44.694;37.790;2024-01-25T06:17:28;7.98;68.30
75190;HTU21D;69198;44.694;37.790;2024-01-25T06:18:29;8.00;68.27
75190;HTU21D;69198;44.694;37.790;2024-01-25T06:19:29;8.06;68.24
75190;HTU21D;69198;44.694;37.790;2024-01-25T06:20:30;8.11;68.01